sensor_id;sensor_type;location;lat;lon;timestamp;pressure;altitude;pressure_sealevel;temperature;humidity
13050;BME280;6591;51.446;5.404;2023-04-02T00:04:03;100742.28;;;13.73;59.31
13050;BME280;6591;51.446;5.404;2023-04-02T00:06:36;100737.88;;;13.72;59.20
13050;BME280;6591;51.446;5.404;2023-04-02T00:11:44;100745.31;;;13.67;59.34
13050;BME280;6591;51.446;5.404;2023-04-02T00:14:29;100750.06;;;13.62;59.25
13050;BME280;6591;51.446;5.404;2023-04-02T00:17:01;100746.53;;;13.61;59.72
13050;BME280;6591;51.446;5.404;2023-04-02T00:19:47;100757.31;;;13.60;59.62
13050;BME280;6591;51.446;5.404;2023-04-02T00:22:21;100764.38;;;13.61;59.51
13050;BME280;6591;51.446;5.404;2023-04-02T00:24:54;100762.66;;;13.60;59.54
13050;BME280;6591;51.446;5.404;2023-04-02T00:27:22;100765.31;;;13.60;58.94
13050;BME280;6591;51.446;5.404;2023-04-02T00:29:55;100766.44;;;13.55;59.26
13050;BME280;6591;51.446;5.404;2023-04-02T00:32:41;100776.44;;;13.52;59.35
13050;BME280;6591;51.446;5.404;2023-04-02T00:35:22;100777.28;;;13.52;59.72
13050;BME280;6591;51.446;5.404;2023-04-02T00:37:52;100776.28;;;13.55;59.80
13050;BME280;6591;51.446;5.404;2023-04-02T00:40:28;100784.34;;;13.53;59.59
13050;BME280;6591;51.446;5.404;2023-04-02T00:42:59;100786.06;;;13.54;59.46
13050;BME280;6591;51.446;5.404;2023-04-02T00:45:34;100792.34;;;13.53;59.54
13050;BME280;6591;51.446;5.404;2023-04-02T00:51:23;100802.44;;;13.48;59.57
13050;BME280;6591;51.446;5.404;2023-04-02T00:53:55;100812.91;;;13.51;59.92
13050;BME280;6591;51.446;5.404;2023-04-02T00:56:38;100809.50;;;13.49;59.73
13050;BME280;6591;51.446;5.404;2023-04-02T00:59:19;100818.44;;;13.48;59.74
13050;BME280;6591;51.446;5.404;2023-04-02T01:05:01;100825.84;;;13.43;59.45
13050;BME280;6591;51.446;5.404;2023-04-02T01:13:38;100842.38;;;13.34;59.45
13050;BME280;6591;51.446;5.404;2023-04-02T01:16:34;100845.38;;;13.28;59.16
13050;BME280;6591;51.446;5.404;2023-04-02T01:22:14;100858.13;;;13.23;59.11
13050;BME280;6591;51.446;5.404;2023-04-02T01:24:44;100858.97;;;13.24;59.23
13050;BME280;6591;51.446;5.404;2023-04-02T01:27:43;100854.00;;;13.18;59.34
13050;BME280;6591;51.446;5.404;2023-04-02T01:30:13;100860.94;;;13.20;59.20
13050;BME280;6591;51.446;5.404;2023-04-02T01:32:42;100864.53;;;13.19;59.25
13050;BME280;6591;51.446;5.404;2023-04-02T01:35:09;100860.06;;;13.20;59.43
13050;BME280;6591;51.446;5.404;2023-04-02T01:38:02;100871.94;;;13.14;59.27
13050;BME280;6591;51.446;5.404;2023-04-02T01:40:44;100876.34;;;13.15;59.29
13050;BME280;6591;51.446;5.404;2023-04-02T01:46:24;100883.78;;;13.08;59.25
13050;BME280;6591;51.446;5.404;2023-04-02T01:48:59;100899.69;;;13.10;59.32
13050;BME280;6591;51.446;5.404;2023-04-02T01:51:31;100902.34;;;13.10;58.79
13050;BME280;6591;51.446;5.404;2023-04-02T01:54:04;100903.22;;;13.10;59.45
13050;BME280;6591;51.446;5.404;2023-04-02T01:56:32;100909.41;;;13.11;59.25
13050;BME280;6591;51.446;5.404;2023-04-02T01:59:03;100908.53;;;13.10;59.18
13050;BME280;6591;51.446;5.404;2023-04-02T02:01:45;100914.94;;;13.08;59.35
13050;BME280;6591;51.446;5.404;2023-04-02T02:04:16;100920.06;;;13.11;59.53
13050;BME280;6591;51.446;5.404;2023-04-02T02:06:45;100928.03;;;13.12;59.21
13050;BME280;6591;51.446;5.404;2023-04-02T02:09:27;100929.09;;;13.08;58.76
13050;BME280;6591;51.446;5.404;2023-04-02T02:12:00;100936.25;;;13.08;59.24
13050;BME280;6591;51.446;5.404;2023-04-02T02:14:30;100932.78;;;13.06;59.11
13050;BME280;6591;51.446;5.404;2023-04-02T02:17:00;100939.13;;;13.03;58.70
13050;BME280;6591;51.446;5.404;2023-04-02T02:19:35;100943.72;;;13.01;58.88
13050;BME280;6591;51.446;5.404;2023-04-02T02:22:26;100947.56;;;12.96;58.54
13050;BME280;6591;51.446;5.404;2023-04-02T02:25:02;100951.16;;;12.95;59.23
13050;BME280;6591;51.446;5.404;2023-04-02T02:28:35;100971.19;;;12.86;59.05
13050;BME280;6591;51.446;5.404;2023-04-02T02:31:16;100977.44;;;12.85;58.64
13050;BME280;6591;51.446;5.404;2023-04-02T02:33:56;100982.84;;;12.84;58.97
13050;BME280;6591;51.446;5.404;2023-04-02T02:36:38;100984.75;;;12.82;58.70
13050;BME280;6591;51.446;5.404;2023-04-02T02:39:36;100989.09;;;12.83;58.93
13050;BME280;6591;51.446;5.404;2023-04-02T02:44:49;101001.59;;;12.82;58.89
13050;BME280;6591;51.446;5.404;2023-04-02T02:47:24;101010.59;;;12.80;58.63
13050;BME280;6591;51.446;5.404;2023-04-02T02:49:56;101009.72;;;12.79;58.36
13050;BME280;6591;51.446;5.404;2023-04-02T02:52:34;101027.59;;;12.77;58.49
13050;BME280;6591;51.446;5.404;2023-04-02T02:55:18;101021.56;;;12.73;58.54
13050;BME280;6591;51.446;5.404;2023-04-02T02:58:04;101029.63;;;12.72;58.54
13050;BME280;6591;51.446;5.404;2023-04-02T03:00:41;101025.16;;;12.72;58.74
13050;BME280;6591;51.446;5.404;2023-04-02T03:03:15;101043.91;;;12.71;58.59
13050;BME280;6591;51.446;5.404;2023-04-02T03:05:56;101045.78;;;12.69;58.39
13050;BME280;6591;51.446;5.404;2023-04-02T03:08:51;101050.41;;;12.65;57.94
13050;BME280;6591;51.446;5.404;2023-04-02T03:11:39;101046.88;;;12.65;58.65
13050;BME280;6591;51.446;5.404;2023-04-02T03:14:43;101056.69;;;12.64;58.55
13050;BME280;6591;51.446;5.404;2023-04-02T03:17:35;101056.63;;;12.66;58.15
13050;BME280;6591;51.446;5.404;2023-04-02T03:23:25;101070.94;;;12.63;58.39
13050;BME280;6591;51.446;5.404;2023-04-02T03:26:18;101083.31;;;12.64;58.30
13050;BME280;6591;51.446;5.404;2023-04-02T03:29:01;101084.19;;;12.65;58.31
13050;BME280;6591;51.446;5.404;2023-04-02T03:31:52;101094.69;;;12.68;58.27
13050;BME280;6591;51.446;5.404;2023-04-02T03:37:07;101108.56;;;12.74;57.76
13050;BME280;6591;51.446;5.404;2023-04-02T03:39:54;101115.63;;;12.76;57.65
13050;BME280;6591;51.446;5.404;2023-04-02T03:42:27;101116.38;;;12.78;57.49
13050;BME280;6591;51.446;5.404;2023-04-02T03:45:12;101121.88;;;12.74;57.70
13050;BME280;6591;51.446;5.404;2023-04-02T03:48:02;101132.38;;;12.78;57.63
13050;BME280;6591;51.446;5.404;2023-04-02T03:50:51;101133.47;;;12.73;57.88
13050;BME280;6591;51.446;5.404;2023-04-02T03:53:24;101138.72;;;12.75;57.78
13050;BME280;6591;51.446;5.404;2023-04-02T03:55:52;101138.81;;;12.73;57.23
13050;BME280;6591;51.446;5.404;2023-04-02T03:58:27;101148.69;;;12.71;57.34
13050;BME280;6591;51.446;5.404;2023-04-02T04:01:25;101149.75;;;12.67;57.43
13050;BME280;6591;51.446;5.404;2023-04-02T04:04:03;101147.94;;;12.68;57.31
13050;BME280;6591;51.446;5.404;2023-04-02T04:06:34;101152.28;;;12.70;57.61
13050;BME280;6591;51.446;5.404;2023-04-02T04:09:30;101157.75;;;12.67;57.77
13050;BME280;6591;51.446;5.404;2023-04-02T04:12:30;101172.16;;;12.63;57.40
13050;BME280;6591;51.446;5.404;2023-04-02T04:15:06;101179.16;;;12.66;57.40
13050;BME280;6591;51.446;5.404;2023-04-02T04:20:39;101188.94;;;12.65;57.08
13050;BME280;6591;51.446;5.404;2023-04-02T04:23:23;101196.34;;;12.59;57.01
13050;BME280;6591;51.446;5.404;2023-04-02T04:26:28;101201.09;;;12.52;57.23
13050;BME280;6591;51.446;5.404;2023-04-02T04:29:46;101214.44;;;12.52;56.72
13050;BME280;6591;51.446;5.404;2023-04-02T04:32:44;101219.09;;;12.47;57.10
13050;BME280;6591;51.446;5.404;2023-04-02T04:35:38;101234.38;;;12.44;57.09
13050;BME280;6591;51.446;5.404;2023-04-02T04:38:24;101238.84;;;12.43;57.13
13050;BME280;6591;51.446;5.404;2023-04-02T04:41:13;101241.44;;;12.45;56.64
13050;BME280;6591;51.446;5.404;2023-04-02T04:44:13;101243.34;;;12.41;57.18
13050;BME280;6591;51.446;5.404;2023-04-02T04:50:52;101254.88;;;12.42;57.22
13050;BME280;6591;51.446;5.404;2023-04-02T04:53:28;101264.66;;;12.41;56.93
13050;BME280;6591;51.446;5.404;2023-04-02T04:56:02;101262.81;;;12.43;56.61
13050;BME280;6591;51.446;5.404;2023-04-02T04:58:58;101270.00;;;12.41;56.86
13050;BME280;6591;51.446;5.404;2023-04-02T05:02:00;101271.13;;;12.36;56.63
13050;BME280;6591;51.446;5.404;2023-04-02T05:04:38;101281.72;;;12.37;56.83
13050;BME280;6591;51.446;5.404;2023-04-02T05:07:27;101286.19;;;12.37;56.68
13050;BME280;6591;51.446;5.404;2023-04-02T05:10:16;101297.75;;;12.36;56.93
13050;BME280;6591;51.446;5.404;2023-04-02T05:13:08;101300.50;;;12.34;56.93
13050;BME280;6591;51.446;5.404;2023-04-02T05:21:22;101311.44;;;12.28;56.19
13050;BME280;6591;51.446;5.404;2023-04-02T05:24:35;101322.34;;;12.22;56.33
13050;BME280;6591;51.446;5.404;2023-04-02T05:27:35;101326.97;;;12.18;56.91
13050;BME280;6591;51.446;5.404;2023-04-02T05:30:52;101328.81;;;12.16;56.64
13050;BME280;6591;51.446;5.404;2023-04-02T05:33:35;101335.72;;;12.20;56.58
13050;BME280;6591;51.446;5.404;2023-04-02T05:36:10;101336.53;;;12.22;56.66
13050;BME280;6591;51.446;5.404;2023-04-02T05:38:48;101350.66;;;12.24;56.32
13050;BME280;6591;51.446;5.404;2023-04-02T05:41:37;101357.88;;;12.21;56.12
13050;BME280;6591;51.446;5.404;2023-04-02T05:44:27;101361.69;;;12.15;56.14
13050;BME280;6591;51.446;5.404;2023-04-02T05:47:13;101361.81;;;12.12;56.30
13050;BME280;6591;51.446;5.404;2023-04-02T05:52:48;101366.44;;;12.09;56.19
13050;BME280;6591;51.446;5.404;2023-04-02T05:55:48;101378.00;;;12.08;56.80
13050;BME280;6591;51.446;5.404;2023-04-02T05:58:50;101386.91;;;12.07;56.57
13050;BME280;6591;51.446;5.404;2023-04-02T06:01:46;101392.22;;;12.07;56.22
13050;BME280;6591;51.446;5.404;2023-04-02T06:04:42;101402.00;;;12.06;56.29
13050;BME280;6591;51.446;5.404;2023-04-02T06:07:21;101406.34;;;12.09;56.63
13050;BME280;6591;51.446;5.404;2023-04-02T06:13:06;101413.38;;;12.10;56.44
13050;BME280;6591;51.446;5.404;2023-04-02T06:15:38;101416.72;;;12.15;56.34
13050;BME280;6591;51.446;5.404;2023-04-02T06:18:23;101416.72;;;12.15;56.05
13050;BME280;6591;51.446;5.404;2023-04-02T06:20:52;101429.03;;;12.17;56.16
13050;BME280;6591;51.446;5.404;2023-04-02T06:23:30;101429.97;;;12.16;56.55
13050;BME280;6591;51.446;5.404;2023-04-02T06:26:33;101443.28;;;12.16;56.28
13050;BME280;6591;51.446;5.404;2023-04-02T06:29:34;101447.72;;;12.16;56.40
13050;BME280;6591;51.446;5.404;2023-04-02T06:32:13;101452.84;;;12.20;56.05
13050;BME280;6591;51.446;5.404;2023-04-02T06:34:43;101459.06;;;12.21;56.51
13050;BME280;6591;51.446;5.404;2023-04-02T06:37:45;101463.66;;;12.17;56.08
13050;BME280;6591;51.446;5.404;2023-04-02T06:43:31;101480.53;;;12.16;56.12
13050;BME280;6591;51.446;5.404;2023-04-02T06:46:42;101478.91;;;12.14;55.76
13050;BME280;6591;51.446;5.404;2023-04-02T06:50:14;101491.53;;;12.09;55.67
13050;BME280;6591;51.446;5.404;2023-04-02T06:53:02;101509.28;;;12.08;55.18
13050;BME280;6591;51.446;5.404;2023-04-02T06:58:30;101509.34;;;12.07;55.67
13050;BME280;6591;51.446;5.404;2023-04-02T07:00:58;101524.50;;;12.05;55.28
13050;BME280;6591;51.446;5.404;2023-04-02T07:03:39;101521.94;;;12.03;55.20
13050;BME280;6591;51.446;5.404;2023-04-02T07:06:24;101536.94;;;12.04;54.63
13050;BME280;6591;51.446;5.404;2023-04-02T07:08:55;101541.47;;;12.02;54.68
13050;BME280;6591;51.446;5.404;2023-04-02T07:11:23;101554.78;;;12.02;54.33
13050;BME280;6591;51.446;5.404;2023-04-02T07:13:52;101553.91;;;12.02;54.29
13050;BME280;6591;51.446;5.404;2023-04-02T07:16:23;101562.81;;;12.01;54.20
13050;BME280;6591;51.446;5.404;2023-04-02T07:18:53;101570.81;;;12.01;54.38
13050;BME280;6591;51.446;5.404;2023-04-02T07:21:30;101579.84;;;11.97;53.52
13050;BME280;6591;51.446;5.404;2023-04-02T07:23:57;101581.78;;;11.93;53.50
13050;BME280;6591;51.446;5.404;2023-04-02T07:26:26;101588.06;;;11.91;53.09
13050;BME280;6591;51.446;5.404;2023-04-02T07:28:54;101590.78;;;11.89;53.01
13050;BME280;6591;51.446;5.404;2023-04-02T07:31:26;101592.56;;;11.88;53.35
13050;BME280;6591;51.446;5.404;2023-04-02T07:33:56;101600.50;;;11.90;53.71
13050;BME280;6591;51.446;5.404;2023-04-02T07:36:27;101608.44;;;11.92;53.35
13050;BME280;6591;51.446;5.404;2023-04-02T07:38:54;101611.09;;;11.92;53.70
13050;BME280;6591;51.446;5.404;2023-04-02T07:41:22;101617.34;;;11.91;53.62
13050;BME280;6591;51.446;5.404;2023-04-02T07:43:49;101617.38;;;11.89;53.90
13050;BME280;6591;51.446;5.404;2023-04-02T07:46:17;101613.84;;;11.88;53.46
13050;BME280;6591;51.446;5.404;2023-04-02T07:48:46;101617.47;;;11.87;53.40
13050;BME280;6591;51.446;5.404;2023-04-02T07:51:23;101627.16;;;11.88;53.89
13050;BME280;6591;51.446;5.404;2023-04-02T07:53:51;101623.63;;;11.88;53.69
13050;BME280;6591;51.446;5.404;2023-04-02T07:56:23;101631.59;;;11.88;53.14
13050;BME280;6591;51.446;5.404;2023-04-02T07:58:51;101636.00;;;11.89;53.28
13050;BME280;6591;51.446;5.404;2023-04-02T08:01:25;101638.75;;;11.87;53.27
13050;BME280;6591;51.446;5.404;2023-04-02T08:03:55;101639.66;;;11.86;53.29
13050;BME280;6591;51.446;5.404;2023-04-02T08:06:24;101640.53;;;11.87;53.01
13050;BME280;6591;51.446;5.404;2023-04-02T08:08:51;101656.50;;;11.87;52.47
13050;BME280;6591;51.446;5.404;2023-04-02T08:11:19;101646.81;;;11.84;52.51
13050;BME280;6591;51.446;5.404;2023-04-02T08:13:46;101661.91;;;11.84;52.54
13050;BME280;6591;51.446;5.404;2023-04-02T08:16:14;101661.06;;;11.83;52.42
13050;BME280;6591;51.446;5.404;2023-04-02T08:18:42;101665.38;;;11.87;53.12
13050;BME280;6591;51.446;5.404;2023-04-02T08:21:10;101672.38;;;11.88;52.77
13050;BME280;6591;51.446;5.404;2023-04-02T08:23:37;101680.09;;;11.96;52.84
13050;BME280;6591;51.446;5.404;2023-04-02T08:26:05;101682.53;;;12.02;52.97
13050;BME280;6591;51.446;5.404;2023-04-02T08:28:33;101685.91;;;12.07;53.12
13050;BME280;6591;51.446;5.404;2023-04-02T08:31:01;101693.69;;;12.12;53.12
13050;BME280;6591;51.446;5.404;2023-04-02T08:33:28;101689.88;;;12.19;52.71
13050;BME280;6591;51.446;5.404;2023-04-02T08:35:55;101709.97;;;12.27;53.34
13050;BME280;6591;51.446;5.404;2023-04-02T08:38:22;101708.84;;;12.33;52.57
13050;BME280;6591;51.446;5.404;2023-04-02T08:40:58;101711.19;;;12.41;52.71
13050;BME280;6591;51.446;5.404;2023-04-02T08:44:07;101718.22;;;12.43;51.85
13050;BME280;6591;51.446;5.404;2023-04-02T08:49:41;101737.84;;;12.41;51.49
13050;BME280;6591;51.446;5.404;2023-04-02T08:52:27;101737.09;;;12.37;51.25
13050;BME280;6591;51.446;5.404;2023-04-02T08:54:56;101737.78;;;12.42;52.00
13050;BME280;6591;51.446;5.404;2023-04-02T08:57:54;101741.31;;;12.43;51.61
13050;BME280;6591;51.446;5.404;2023-04-02T09:00:39;101750.06;;;12.46;51.70
13050;BME280;6591;51.446;5.404;2023-04-02T09:03:18;101763.03;;;12.55;52.34
13050;BME280;6591;51.446;5.404;2023-04-02T09:05:49;101777.66;;;12.67;52.79
13050;BME280;6591;51.446;5.404;2023-04-02T09:08:21;101767.63;;;12.73;52.69
13050;BME280;6591;51.446;5.404;2023-04-02T09:11:07;101781.41;;;12.85;52.79
13050;BME280;6591;51.446;5.404;2023-04-02T09:13:41;101774.09;;;12.90;52.04
13050;BME280;6591;51.446;5.404;2023-04-02T09:16:16;101775.59;;;12.97;52.04
13050;BME280;6591;51.446;5.404;2023-04-02T09:18:49;101786.94;;;13.02;52.23
13050;BME280;6591;51.446;5.404;2023-04-02T09:23:47;101803.63;;;13.07;51.42
13050;BME280;6591;51.446;5.404;2023-04-02T09:26:25;101796.69;;;13.03;50.90
13050;BME280;6591;51.446;5.404;2023-04-02T09:29:39;101815.63;;;12.95;50.68
13050;BME280;6591;51.446;5.404;2023-04-02T09:35:18;101830.03;;;12.91;50.97
13050;BME280;6591;51.446;5.404;2023-04-02T09:38:29;101819.53;;;12.87;50.79
13050;BME280;6591;51.446;5.404;2023-04-02T09:41:05;101824.78;;;12.88;50.56
13050;BME280;6591;51.446;5.404;2023-04-02T09:43:37;101826.31;;;12.95;50.59
13050;BME280;6591;51.446;5.404;2023-04-02T09:46:36;101836.00;;;12.98;51.24
13050;BME280;6591;51.446;5.404;2023-04-02T09:49:03;101842.69;;;13.08;51.33
13050;BME280;6591;51.446;5.404;2023-04-02T09:51:32;101838.88;;;13.15;51.15
13050;BME280;6591;51.446;5.404;2023-04-02T09:56:35;101852.41;;;13.32;51.87
13050;BME280;6591;51.446;5.404;2023-04-02T10:07:46;101867.94;;;13.44;50.50
13050;BME280;6591;51.446;5.404;2023-04-02T10:10:42;101864.19;;;13.48;50.06
13050;BME280;6591;51.446;5.404;2023-04-02T10:18:59;101876.09;;;13.40;49.70
13050;BME280;6591;51.446;5.404;2023-04-02T10:21:34;101880.75;;;13.35;48.90
13050;BME280;6591;51.446;5.404;2023-04-02T10:24:14;101880.00;;;13.31;49.51
13050;BME280;6591;51.446;5.404;2023-04-02T10:33:00;101901.97;;;13.38;50.37
13050;BME280;6591;51.446;5.404;2023-04-02T10:39:01;101916.41;;;13.32;49.58
13050;BME280;6591;51.446;5.404;2023-04-02T10:47:48;101937.34;;;13.20;49.03
13050;BME280;6591;51.446;5.404;2023-04-02T10:50:51;101926.81;;;13.17;49.95
13050;BME280;6591;51.446;5.404;2023-04-02T10:53:50;101936.66;;;13.14;49.85
13050;BME280;6591;51.446;5.404;2023-04-02T10:56:24;101931.03;;;13.22;50.07
13050;BME280;6591;51.446;5.404;2023-04-02T10:59:15;101938.13;;;13.23;50.07
13050;BME280;6591;51.446;5.404;2023-04-02T11:01:46;101939.38;;;13.36;50.54
13050;BME280;6591;51.446;5.404;2023-04-02T11:04:30;101949.63;;;13.47;50.12
13050;BME280;6591;51.446;5.404;2023-04-02T11:07:05;101944.09;;;13.51;49.90
13050;BME280;6591;51.446;5.404;2023-04-02T11:09:45;101953.66;;;13.57;49.40
13050;BME280;6591;51.446;5.404;2023-04-02T11:12:22;101957.16;;;13.59;49.35
13050;BME280;6591;51.446;5.404;2023-04-02T11:14:53;101964.09;;;13.63;49.41
13050;BME280;6591;51.446;5.404;2023-04-02T11:17:22;101972.09;;;13.63;48.46
13050;BME280;6591;51.446;5.404;2023-04-02T11:19:50;101978.38;;;13.62;49.06
13050;BME280;6591;51.446;5.404;2023-04-02T11:22:23;101990.72;;;13.65;49.31
13050;BME280;6591;51.446;5.404;2023-04-02T11:24:55;101986.13;;;13.68;49.35
13050;BME280;6591;51.446;5.404;2023-04-02T11:27:41;101991.19;;;13.76;49.36
13050;BME280;6591;51.446;5.404;2023-04-02T11:32:47;101986.81;;;13.95;49.80
13050;BME280;6591;51.446;5.404;2023-04-02T11:35:37;101991.91;;;14.01;49.84
13050;BME280;6591;51.446;5.404;2023-04-02T11:40:57;102003.09;;;14.11;48.55
13050;BME280;6591;51.446;5.404;2023-04-02T11:48:35;102002.22;;;14.10;48.98
13050;BME280;6591;51.446;5.404;2023-04-02T11:53:54;102007.56;;;14.10;48.41
13050;BME280;6591;51.446;5.404;2023-04-02T11:56:47;102009.34;;;14.10;48.69
13050;BME280;6591;51.446;5.404;2023-04-02T12:02:18;102030.97;;;14.25;49.69
13050;BME280;6591;51.446;5.404;2023-04-02T12:05:26;102035.13;;;14.32;49.83
13050;BME280;6591;51.446;5.404;2023-04-02T12:08:09;102043.72;;;14.40;49.26
13050;BME280;6591;51.446;5.404;2023-04-02T12:11:00;102042.66;;;14.45;49.41
13050;BME280;6591;51.446;5.404;2023-04-02T12:13:47;102041.72;;;14.46;49.07
13050;BME280;6591;51.446;5.404;2023-04-02T12:16:16;102044.28;;;14.49;48.50
13050;BME280;6591;51.446;5.404;2023-04-02T12:18:47;102047.06;;;14.46;47.71
13050;BME280;6591;51.446;5.404;2023-04-02T12:21:23;102055.41;;;14.38;47.59
13050;BME280;6591;51.446;5.404;2023-04-02T12:23:56;102059.19;;;14.32;47.76
13050;BME280;6591;51.446;5.404;2023-04-02T12:26:33;102061.09;;;14.29;47.62
13050;BME280;6591;51.446;5.404;2023-04-02T12:29:25;102069.19;;;14.27;48.16
13050;BME280;6591;51.446;5.404;2023-04-02T12:31:55;102065.44;;;14.31;48.22
13050;BME280;6591;51.446;5.404;2023-04-02T12:34:25;102070.56;;;14.37;48.52
13050;BME280;6591;51.446;5.404;2023-04-02T12:37:04;102068.63;;;14.41;48.38
13050;BME280;6591;51.446;5.404;2023-04-02T12:39:35;102073.72;;;14.47;48.42
13050;BME280;6591;51.446;5.404;2023-04-02T12:42:03;102081.34;;;14.56;48.73
13050;BME280;6591;51.446;5.404;2023-04-02T12:44:30;102081.97;;;14.63;48.92
13050;BME280;6591;51.446;5.404;2023-04-02T12:46:58;102084.41;;;14.69;49.08
13050;BME280;6591;51.446;5.404;2023-04-02T12:49:40;102086.13;;;14.70;48.54
13050;BME280;6591;51.446;5.404;2023-04-02T12:52:17;102091.41;;;14.71;47.96
13050;BME280;6591;51.446;5.404;2023-04-02T12:55:00;102092.53;;;14.66;47.87
13050;BME280;6591;51.446;5.404;2023-04-02T12:57:34;102092.03;;;14.56;47.04
13050;BME280;6591;51.446;5.404;2023-04-02T13:02:59;102099.03;;;14.38;47.73
13050;BME280;6591;51.446;5.404;2023-04-02T13:05:39;102092.03;;;14.34;47.29
13050;BME280;6591;51.446;5.404;2023-04-02T13:08:40;102109.44;;;14.23;47.36
13050;BME280;6591;51.446;5.404;2023-04-02T13:11:07;102117.28;;;14.27;47.65
13050;BME280;6591;51.446;5.404;2023-04-02T13:13:37;102123.50;;;14.28;47.65
13050;BME280;6591;51.446;5.404;2023-04-02T13:18:46;102117.38;;;14.24;47.83
13050;BME280;6591;51.446;5.404;2023-04-02T13:23:47;102112.13;;;14.23;47.29
13050;BME280;6591;51.446;5.404;2023-04-02T13:26:26;102116.00;;;14.14;46.97
13050;BME280;6591;51.446;5.404;2023-04-02T13:29:24;102113.41;;;14.13;48.15
13050;BME280;6591;51.446;5.404;2023-04-02T13:31:55;102102.22;;;14.25;49.12
13050;BME280;6591;51.446;5.404;2023-04-02T13:34:23;102105.84;;;14.46;49.67
13050;BME280;6591;51.446;5.404;2023-04-02T13:36:51;102104.97;;;14.67;50.33
13050;BME280;6591;51.446;5.404;2023-04-02T13:39:18;102113.69;;;14.92;50.10
13050;BME280;6591;51.446;5.404;2023-04-02T13:41:58;102108.38;;;15.12;48.83
13050;BME280;6591;51.446;5.404;2023-04-02T13:44:32;102109.28;;;15.32;49.05
13050;BME280;6591;51.446;5.404;2023-04-02T13:47:00;102115.53;;;15.51;49.36
13050;BME280;6591;51.446;5.404;2023-04-02T13:49:28;102116.66;;;15.65;48.59
13050;BME280;6591;51.446;5.404;2023-04-02T13:52:02;102108.66;;;15.84;49.43
13050;BME280;6591;51.446;5.404;2023-04-02T13:54:54;102113.72;;;16.09;49.51
13050;BME280;6591;51.446;5.404;2023-04-02T13:57:25;102113.28;;;16.37;49.36
13050;BME280;6591;51.446;5.404;2023-04-02T13:59:53;102113.16;;;16.57;48.74
13050;BME280;6591;51.446;5.404;2023-04-02T14:02:24;102118.41;;;16.77;48.98
13050;BME280;6591;51.446;5.404;2023-04-02T14:11:15;102116.09;;;17.38;47.79
13050;BME280;6591;51.446;5.404;2023-04-02T14:29:30;102128.78;;;17.52;45.21
13050;BME280;6591;51.446;5.404;2023-04-02T14:32:27;102122.56;;;17.52;45.23
13050;BME280;6591;51.446;5.404;2023-04-02T14:40:44;102136.16;;;17.82;45.88
13050;BME280;6591;51.446;5.404;2023-04-02T14:43:26;102137.84;;;18.00;46.03
13050;BME280;6591;51.446;5.404;2023-04-02T14:46:01;102140.56;;;18.15;46.40
13050;BME280;6591;51.446;5.404;2023-04-02T14:51:27;102152.25;;;18.30;44.58
13050;BME280;6591;51.446;5.404;2023-04-02T14:56:53;102151.66;;;18.72;46.01
13050;BME280;6591;51.446;5.404;2023-04-02T14:59:29;102155.59;;;18.96;45.61
13050;BME280;6591;51.446;5.404;2023-04-02T15:02:53;102165.13;;;19.02;44.13
13050;BME280;6591;51.446;5.404;2023-04-02T15:05:37;102167.22;;;18.97;43.14
13050;BME280;6591;51.446;5.404;2023-04-02T15:08:18;102166.09;;;19.01;44.05
13050;BME280;6591;51.446;5.404;2023-04-02T15:11:11;102167.47;;;19.08;44.23
13050;BME280;6591;51.446;5.404;2023-04-02T15:16:29;102164.94;;;19.35;44.32
13050;BME280;6591;51.446;5.404;2023-04-02T15:18:59;102158.72;;;19.49;43.57
13050;BME280;6591;51.446;5.404;2023-04-02T15:22:08;102163.75;;;19.55;42.97
13050;BME280;6591;51.446;5.404;2023-04-02T15:32:38;102157.75;;;20.20;43.25
13050;BME280;6591;51.446;5.404;2023-04-02T15:44:02;102157.13;;;20.58;43.47
13050;BME280;6591;51.446;5.404;2023-04-02T15:49:59;102176.63;;;20.76;42.67
13050;BME280;6591;51.446;5.404;2023-04-02T15:52:48;102172.81;;;20.92;42.56
13050;BME280;6591;51.446;5.404;2023-04-02T15:55:35;102172.41;;;20.98;40.77
13050;BME280;6591;51.446;5.404;2023-04-02T15:58:38;102178.53;;;21.00;41.98
13050;BME280;6591;51.446;5.404;2023-04-02T16:04:41;102180.13;;;20.90;40.38
13050;BME280;6591;51.446;5.404;2023-04-02T16:08:02;102180.75;;;20.81;38.81
13050;BME280;6591;51.446;5.404;2023-04-02T16:10:30;102192.97;;;20.60;38.95
13050;BME280;6591;51.446;5.404;2023-04-02T16:13:36;102187.50;;;20.47;39.93
13050;BME280;6591;51.446;5.404;2023-04-02T16:16:30;102196.28;;;20.37;39.29
13050;BME280;6591;51.446;5.404;2023-04-02T16:19:06;102204.69;;;20.32;39.82
13050;BME280;6591;51.446;5.404;2023-04-02T16:21:50;102202.25;;;20.27;40.04
13050;BME280;6591;51.446;5.404;2023-04-02T16:24:20;102207.88;;;20.24;39.88
13050;BME280;6591;51.446;5.404;2023-04-02T16:29:57;102207.69;;;19.99;38.02
13050;BME280;6591;51.446;5.404;2023-04-02T16:33:23;102215.47;;;19.75;38.12
13050;BME280;6591;51.446;5.404;2023-04-02T16:36:32;102219.88;;;19.62;38.60
13050;BME280;6591;51.446;5.404;2023-04-02T16:39:40;102219.66;;;19.51;38.75
13050;BME280;6591;51.446;5.404;2023-04-02T16:45:57;102235.53;;;19.56;39.83
13050;BME280;6591;51.446;5.404;2023-04-02T16:48:44;102232.13;;;19.68;39.95
13050;BME280;6591;51.446;5.404;2023-04-02T16:54:16;102243.28;;;19.90;41.38
13050;BME280;6591;51.446;5.404;2023-04-02T16:57:14;102243.03;;;20.09;41.91
13050;BME280;6591;51.446;5.404;2023-04-02T17:06:07;102255.94;;;20.18;38.66
13050;BME280;6591;51.446;5.404;2023-04-02T17:08:42;102258.91;;;20.13;38.27
13050;BME280;6591;51.446;5.404;2023-04-02T17:11:44;102268.56;;;20.03;38.49
13050;BME280;6591;51.446;5.404;2023-04-02T17:14:33;102277.19;;;19.94;38.40
13050;BME280;6591;51.446;5.404;2023-04-02T17:17:08;102278.53;;;19.87;38.99
13050;BME280;6591;51.446;5.404;2023-04-02T17:19:39;102279.00;;;19.79;38.63
13050;BME280;6591;51.446;5.404;2023-04-02T17:22:16;102279.75;;;19.67;38.58
13050;BME280;6591;51.446;5.404;2023-04-02T17:25:01;102283.38;;;19.52;38.29
13050;BME280;6591;51.446;5.404;2023-04-02T17:27:36;102290.59;;;19.36;38.57